createdAt,value
2023-04-15T00:00:23.671Z,53.80
2023-04-15T00:01:23.670Z,53.79
2023-04-15T00:02:23.829Z,53.77
2023-04-15T00:03:24.777Z,53.78
2023-04-15T00:04:23.641Z,53.77
2023-04-15T00:05:23.581Z,53.78
2023-04-15T00:06:23.568Z,53.76
2023-04-15T00:07:23.548Z,53.75
2023-04-15T00:08:24.506Z,53.73
2023-04-15T00:09:23.540Z,53.74
2023-04-15T00:10:23.542Z,53.72
2023-04-15T00:11:23.494Z,53.72
2023-04-15T00:12:23.520Z,53.72
2023-04-15T00:13:24.448Z,53.70
2023-04-15T00:14:23.469Z,53.70
2023-04-15T00:15:23.507Z,53.67
2023-04-15T00:16:23.530Z,53.67
2023-04-15T00:17:23.500Z,53.68
2023-04-15T00:18:23.432Z,53.68
2023-04-15T00:19:24.383Z,53.70
2023-04-15T00:20:23.404Z,53.70
2023-04-15T00:21:23.404Z,53.71
2023-04-15T00:22:23.376Z,53.70
2023-04-15T00:23:23.376Z,53.70
2023-04-15T00:24:24.308Z,53.71
2023-04-15T00:25:23.334Z,53.70
2023-04-15T00:26:23.320Z,53.71
2023-04-15T00:27:23.322Z,53.71
2023-04-15T00:28:23.300Z,53.73
2023-04-15T00:29:23.295Z,53.74
2023-04-15T00:30:24.222Z,53.75
2023-04-15T00:31:23.486Z,53.75
2023-04-15T00:32:23.354Z,53.75
2023-04-15T00:33:23.238Z,53.76
2023-04-15T00:34:23.262Z,53.75
2023-04-15T00:35:23.198Z,53.78
2023-04-15T00:36:24.149Z,53.80
2023-04-15T00:37:23.177Z,53.81
2023-04-15T00:38:23.185Z,53.81
2023-04-15T00:39:23.193Z,53.79
2023-04-15T00:40:23.174Z,53.79
2023-04-15T00:41:23.173Z,53.79
2023-04-15T00:42:24.068Z,53.80
2023-04-15T00:43:23.128Z,53.82
2023-04-15T00:44:23.126Z,53.83
2023-04-15T00:45:23.100Z,53.83
2023-04-15T00:46:23.101Z,53.83
2023-04-15T00:47:24.062Z,53.83
2023-04-15T00:48:23.046Z,53.83
2023-04-15T00:49:23.031Z,53.86
2023-04-15T00:50:23.147Z,53.86
2023-04-15T00:51:23.018Z,53.86
2023-04-15T00:52:22.991Z,53.87
2023-04-15T00:53:23.923Z,53.85
2023-04-15T00:54:22.966Z,53.87
2023-04-15T00:55:23.101Z,53.87
2023-04-15T00:56:22.979Z,53.86
2023-04-15T00:57:22.916Z,53.87
2023-04-15T00:58:22.907Z,53.89
2023-04-15T00:59:23.834Z,53.85
2023-04-15T01:00:22.893Z,53.87
2023-04-15T01:01:22.939Z,53.87
2023-04-15T01:02:22.978Z,53.86
2023-04-15T01:03:23.110Z,53.84
2023-04-15T01:04:23.825Z,53.83
2023-04-15T01:05:22.834Z,53.83
2023-04-15T01:06:22.825Z,53.83
2023-04-15T01:07:22.828Z,53.83
2023-04-15T01:08:22.770Z,53.81
2023-04-15T01:09:22.772Z,53.81
2023-04-15T01:10:23.674Z,53.80
2023-04-15T01:11:22.757Z,53.79
2023-04-15T01:12:22.736Z,53.80
2023-04-15T01:13:22.707Z,53.80
2023-04-15T01:14:22.695Z,53.81
2023-04-15T01:15:23.644Z,53.80
2023-04-15T01:16:22.793Z,53.82
2023-04-15T01:17:22.732Z,53.82
2023-04-15T01:18:22.663Z,53.83
2023-04-15T01:19:22.650Z,53.83
2023-04-15T01:20:23.552Z,53.85
2023-04-15T01:21:22.647Z,53.84
2023-04-15T01:22:22.606Z,53.83
2023-04-15T01:23:22.587Z,53.84
2023-04-15T01:24:22.563Z,53.84
2023-04-15T01:25:22.573Z,53.85
2023-04-15T01:26:23.477Z,53.85
2023-04-15T01:27:22.548Z,53.85
2023-04-15T01:28:22.558Z,53.84
2023-04-15T01:29:22.525Z,53.84
2023-04-15T01:30:22.511Z,53.84
2023-04-15T01:31:23.451Z,53.82
2023-04-15T01:32:22.516Z,53.81
2023-04-15T01:33:22.522Z,53.80
2023-04-15T01:34:22.488Z,53.81
2023-04-15T01:35:22.426Z,53.82
2023-04-15T01:36:23.379Z,53.81
2023-04-15T01:37:22.408Z,53.81
2023-04-15T01:38:22.412Z,53.80
2023-04-15T01:39:22.390Z,53.80
2023-04-15T01:40:22.384Z,53.82
2023-04-15T01:41:23.321Z,53.81
2023-04-15T01:42:22.373Z,53.82
2023-04-15T01:43:22.369Z,53.82
2023-04-15T01:44:22.320Z,53.80
2023-04-15T01:45:22.304Z,53.79
2023-04-15T01:46:22.337Z,53.80
2023-04-15T01:47:23.257Z,53.80
2023-04-15T01:48:22.279Z,53.80
2023-04-15T01:49:22.276Z,53.78
2023-04-15T01:50:22.256Z,53.78
2023-04-15T01:51:22.252Z,53.79
2023-04-15T01:52:23.195Z,53.78
2023-04-15T01:53:22.216Z,53.78
2023-04-15T01:54:22.189Z,53.78
2023-04-15T01:55:22.178Z,53.77
2023-04-15T01:56:22.184Z,53.76
2023-04-15T01:57:22.184Z,53.75
2023-04-15T01:58:23.098Z,53.73
2023-04-15T01:59:22.158Z,53.74
2023-04-15T02:00:22.148Z,53.73
2023-04-15T02:01:22.203Z,53.72
2023-04-15T02:02:22.166Z,53.73
2023-04-15T02:03:22.214Z,53.74
2023-04-15T02:04:23.031Z,53.74
2023-04-15T02:05:22.075Z,53.72
2023-04-15T02:06:22.046Z,53.74
2023-04-15T02:07:22.058Z,53.76
2023-04-15T02:08:22.054Z,53.76
2023-04-15T02:09:22.025Z,53.79
2023-04-15T02:10:22.936Z,53.81
2023-04-15T02:11:21.989Z,53.82
2023-04-15T02:12:21.994Z,53.82
2023-04-15T02:13:21.955Z,53.83
2023-04-15T02:14:21.948Z,53.85
2023-04-15T02:15:21.943Z,53.85
2023-04-15T02:16:22.886Z,53.86
2023-04-15T02:17:21.986Z,53.86
2023-04-15T02:18:21.913Z,53.84
2023-04-15T02:19:21.886Z,53.86
2023-04-15T02:20:21.880Z,53.87
2023-04-15T02:21:21.887Z,53.90
2023-04-15T02:22:22.788Z,53.90
2023-04-15T02:23:21.859Z,53.92
2023-04-15T02:24:21.838Z,53.92
2023-04-15T02:25:21.842Z,53.92
2023-04-15T02:26:21.795Z,53.94
2023-04-15T02:27:21.785Z,53.92
2023-04-15T02:28:22.710Z,53.93
2023-04-15T02:29:21.753Z,53.94
2023-04-15T02:30:21.743Z,53.93
2023-04-15T02:31:21.803Z,53.94
2023-04-15T02:32:21.761Z,53.94
2023-04-15T02:33:21.789Z,53.94
2023-04-15T02:34:22.628Z,53.94
2023-04-15T02:35:21.659Z,53.96
2023-04-15T02:36:21.682Z,53.96
2023-04-15T02:37:21.655Z,53.96
2023-04-15T02:38:21.692Z,53.96
2023-04-15T02:39:21.624Z,53.97
2023-04-15T02:40:22.555Z,53.99
2023-04-15T02:41:21.603Z,53.99
2023-04-15T02:42:21.626Z,53.98
2023-04-15T02:43:21.611Z,53.99
2023-04-15T02:44:21.573Z,53.99
2023-04-15T02:45:21.558Z,54.00
2023-04-15T02:46:22.516Z,53.99
2023-04-15T02:47:21.537Z,53.99
2023-04-15T02:48:21.526Z,53.98
2023-04-15T02:49:21.529Z,54.00
2023-04-15T02:50:21.492Z,54.02
2023-04-15T02:51:21.490Z,54.03
2023-04-15T02:52:22.396Z,54.02
2023-04-15T02:53:21.464Z,54.01
2023-04-15T02:54:21.440Z,54.01
2023-04-15T02:55:21.432Z,54.01
2023-04-15T02:56:21.412Z,54.01
2023-04-15T02:57:22.366Z,54.01
2023-04-15T02:58:21.392Z,54.01
2023-04-15T02:59:21.382Z,53.99
2023-04-15T03:00:21.370Z,53.98
2023-04-15T03:01:21.376Z,53.98
2023-04-15T03:02:21.433Z,53.97
2023-04-15T03:03:22.366Z,53.96
2023-04-15T03:04:21.347Z,53.95
2023-04-15T03:05:21.319Z,53.94
2023-04-15T03:06:21.293Z,53.93
2023-04-15T03:07:21.255Z,53.92
2023-04-15T03:08:21.250Z,53.92
2023-04-15T03:09:22.186Z,53.89
2023-04-15T03:10:21.238Z,53.88
2023-04-15T03:11:21.229Z,53.86
2023-04-15T03:12:21.235Z,53.86
2023-04-15T03:13:21.187Z,53.84
2023-04-15T03:14:21.223Z,53.82
2023-04-15T03:15:22.109Z,53.81
2023-04-15T03:16:21.184Z,53.82
2023-04-15T03:17:21.190Z,53.83
2023-04-15T03:18:21.155Z,53.84
2023-04-15T03:19:21.124Z,53.84
2023-04-15T03:20:21.140Z,53.84
2023-04-15T03:21:22.046Z,53.83
2023-04-15T03:22:21.083Z,53.82
2023-04-15T03:23:21.065Z,53.80
2023-04-15T03:24:21.147Z,53.79
2023-04-15T03:25:21.098Z,53.79
2023-04-15T03:26:21.944Z,53.78
2023-04-15T03:27:21.015Z,53.77
2023-04-15T03:28:21.022Z,53.77
2023-04-15T03:29:20.980Z,53.79
2023-04-15T03:30:20.991Z,53.78
2023-04-15T03:31:21.888Z,53.78
2023-04-15T03:32:20.996Z,53.77
2023-04-15T03:33:20.961Z,53.75
2023-04-15T03:34:20.940Z,53.75
2023-04-15T03:35:20.943Z,53.75
2023-04-15T03:36:20.938Z,53.75
2023-04-15T03:37:21.805Z,53.74
2023-04-15T03:38:20.883Z,53.74
2023-04-15T03:39:20.858Z,53.76
2023-04-15T03:40:20.878Z,53.74
2023-04-15T03:41:20.887Z,53.75
2023-04-15T03:42:20.818Z,53.78
2023-04-15T03:43:21.748Z,53.77
2023-04-15T03:44:20.793Z,53.76
2023-04-15T03:45:20.788Z,53.75
2023-04-15T03:46:20.832Z,53.75
2023-04-15T03:47:20.800Z,53.77
2023-04-15T03:48:21.727Z,53.77
2023-04-15T03:49:20.724Z,53.76
2023-04-15T03:50:20.723Z,53.77
2023-04-15T03:51:20.740Z,53.79
2023-04-15T03:52:20.710Z,53.79
2023-04-15T03:53:20.662Z,53.78
2023-04-15T03:54:21.616Z,53.78
2023-04-15T03:55:20.668Z,53.79
2023-04-15T03:56:20.650Z,53.78
2023-04-15T03:57:20.631Z,53.78
2023-04-15T03:58:20.621Z,53.77
2023-04-15T03:59:21.552Z,53.77
2023-04-15T04:00:20.605Z,53.79
2023-04-15T04:01:20.635Z,53.78
2023-04-15T04:02:20.654Z,53.78
2023-04-15T04:03:20.646Z,53.77
2023-04-15T04:04:20.656Z,53.77
2023-04-15T04:05:21.469Z,53.76
2023-04-15T04:06:20.489Z,53.77
2023-04-15T04:07:20.514Z,53.78
2023-04-15T04:08:20.501Z,53.79
2023-04-15T04:09:20.476Z,53.79
2023-04-15T04:10:20.474Z,53.80
2023-04-15T04:11:21.375Z,53.81
2023-04-15T04:12:20.439Z,53.79
2023-04-15T04:13:20.457Z,53.81
2023-04-15T04:14:20.427Z,53.81
2023-04-15T04:15:20.403Z,53.82
2023-04-15T04:16:21.450Z,53.80
2023-04-15T04:17:20.376Z,53.81
2023-04-15T04:18:20.354Z,53.80
2023-04-15T04:19:20.348Z,53.79
2023-04-15T04:20:20.349Z,53.77
2023-04-15T04:21:21.278Z,53.78
2023-04-15T04:22:20.340Z,53.78
2023-04-15T04:23:20.308Z,53.78
2023-04-15T04:24:20.313Z,53.78
2023-04-15T04:25:20.278Z,53.77
2023-04-15T04:26:20.273Z,53.78
2023-04-15T04:27:21.179Z,53.77
2023-04-15T04:28:20.236Z,53.75
2023-04-15T04:29:20.242Z,53.74
2023-04-15T04:30:20.233Z,53.74
2023-04-15T04:31:20.273Z,53.74
2023-04-15T04:32:21.158Z,53.71
2023-04-15T04:33:20.197Z,53.69
2023-04-15T04:34:20.161Z,53.69
2023-04-15T04:35:20.152Z,53.67
2023-04-15T04:36:20.118Z,53.66
2023-04-15T04:37:20.149Z,53.64
2023-04-15T04:38:21.023Z,53.63
2023-04-15T04:39:20.086Z,53.61
2023-04-15T04:40:20.067Z,53.58
2023-04-15T04:41:20.061Z,53.59
2023-04-15T04:42:20.061Z,53.56
2023-04-15T04:43:20.973Z,53.53
2023-04-15T04:44:20.038Z,53.51
2023-04-15T04:45:20.033Z,53.50
2023-04-15T04:46:20.031Z,53.49
2023-04-15T04:47:19.997Z,53.47
2023-04-15T04:48:20.905Z,53.48
2023-04-15T04:49:19.957Z,53.46
2023-04-15T04:50:19.960Z,53.46
2023-04-15T04:51:19.937Z,53.45
2023-04-15T04:52:19.934Z,53.45
2023-04-15T04:53:20.873Z,53.44
2023-04-15T04:54:19.906Z,53.44
2023-04-15T04:55:19.873Z,53.43
2023-04-15T04:56:19.873Z,53.41
2023-04-15T04:57:19.845Z,53.40
2023-04-15T04:58:19.849Z,53.38
2023-04-15T04:59:20.768Z,53.37
2023-04-15T05:00:19.805Z,53.36
2023-04-15T05:01:19.835Z,53.35
2023-04-15T05:02:19.945Z,53.33
2023-04-15T05:03:20.011Z,53.32
2023-04-15T05:04:20.676Z,53.29
2023-04-15T05:05:19.782Z,53.26
2023-04-15T05:06:19.782Z,53.24
2023-04-15T05:07:19.736Z,53.25
2023-04-15T05:08:19.744Z,53.23
2023-04-15T05:09:19.724Z,53.22
2023-04-15T05:10:20.603Z,53.22
2023-04-15T05:11:19.690Z,53.19
2023-04-15T05:12:19.719Z,53.20
2023-04-15T05:13:19.665Z,53.18
2023-04-15T05:14:20.509Z,53.15
2023-04-15T05:15:19.618Z,53.14
2023-04-15T05:16:20.639Z,53.14
2023-04-15T05:17:19.624Z,53.11
2023-04-15T05:18:19.588Z,53.10
2023-04-15T05:19:19.593Z,53.07
2023-04-15T05:20:19.576Z,53.04
2023-04-15T05:21:19.603Z,53.03
2023-04-15T05:22:20.517Z,53.00
2023-04-15T05:23:19.528Z,53.00
2023-04-15T05:24:19.500Z,52.99
2023-04-15T05:25:19.533Z,52.98
2023-04-15T05:26:19.496Z,52.99
2023-04-15T05:27:20.406Z,52.97
2023-04-15T05:28:19.474Z,52.99
2023-04-15T05:29:19.460Z,53.00
2023-04-15T05:30:19.443Z,53.03
2023-04-15T05:31:19.529Z,53.07
2023-04-15T05:32:19.451Z,53.08
2023-04-15T05:33:20.358Z,53.07
2023-04-15T05:34:19.412Z,53.10
2023-04-15T05:35:19.375Z,53.09
2023-04-15T05:36:19.407Z,53.08
2023-04-15T05:37:19.355Z,53.05
2023-04-15T05:38:20.260Z,52.99
2023-04-15T05:39:19.351Z,52.95
2023-04-15T05:40:19.350Z,52.93
2023-04-15T05:41:19.958Z,52.90
2023-04-15T05:42:19.277Z,52.91
2023-04-15T05:43:19.278Z,52.88
2023-04-15T05:44:20.205Z,52.86
2023-04-15T05:45:19.270Z,52.84
2023-04-15T05:46:19.248Z,52.81
2023-04-15T05:47:19.249Z,52.79
2023-04-15T05:48:19.226Z,52.78
2023-04-15T05:49:19.214Z,52.77
2023-04-15T05:50:20.122Z,52.75
2023-04-15T05:51:19.175Z,52.75
2023-04-15T05:52:19.175Z,52.75
2023-04-15T05:53:19.154Z,52.72
2023-04-15T05:54:20.302Z,52.71
2023-04-15T05:55:20.280Z,52.65
2023-04-15T05:56:19.156Z,52.61
2023-04-15T05:57:19.150Z,52.53
2023-04-15T05:58:19.069Z,52.44
2023-04-15T05:59:19.068Z,52.37
2023-04-15T06:00:19.980Z,52.29
2023-04-15T06:01:19.052Z,52.23
2023-04-15T06:02:19.175Z,52.17
2023-04-15T06:03:19.073Z,52.13
2023-04-15T06:04:19.186Z,52.07
2023-04-15T06:05:19.046Z,52.02
2023-04-15T06:06:19.963Z,51.96
2023-04-15T06:07:18.953Z,51.92
2023-04-15T06:08:18.995Z,51.87
2023-04-15T06:09:18.979Z,51.82
2023-04-15T06:10:18.938Z,51.79
2023-04-15T06:11:18.958Z,51.75
2023-04-15T06:12:19.838Z,51.72
2023-04-15T06:13:18.908Z,51.68
2023-04-15T06:14:18.896Z,51.67
2023-04-15T06:15:18.893Z,51.65
2023-04-15T06:16:18.903Z,51.63
2023-04-15T06:17:18.899Z,51.62
2023-04-15T06:18:19.761Z,51.62
2023-04-15T06:19:19.144Z,51.64
2023-04-15T06:20:18.827Z,51.64
2023-04-15T06:21:18.791Z,51.63
2023-04-15T06:22:18.782Z,51.63
2023-04-15T06:23:18.773Z,51.62
2023-04-15T06:24:19.716Z,51.61
2023-04-15T06:25:18.756Z,51.58
2023-04-15T06:26:18.728Z,51.58
2023-04-15T06:27:18.720Z,51.55
2023-04-15T06:28:18.715Z,51.54
2023-04-15T06:29:19.647Z,51.53
2023-04-15T06:30:18.723Z,51.50
2023-04-15T06:31:18.716Z,51.49
2023-04-15T06:32:18.647Z,51.48
2023-04-15T06:33:18.650Z,51.45
2023-04-15T06:34:18.627Z,51.44
2023-04-15T06:35:19.554Z,51.41
2023-04-15T06:36:18.613Z,51.40
2023-04-15T06:37:18.608Z,51.36
2023-04-15T06:38:18.574Z,51.29
2023-04-15T06:39:18.554Z,51.23
2023-04-15T06:40:18.603Z,51.13
2023-04-15T06:41:19.493Z,51.01
2023-04-15T06:42:18.543Z,50.89
2023-04-15T06:43:18.543Z,50.80
2023-04-15T06:44:18.496Z,50.71
2023-04-15T06:45:18.490Z,50.64
2023-04-15T06:46:19.583Z,50.59
2023-04-15T06:47:18.499Z,50.54
2023-04-15T06:48:18.451Z,50.47
2023-04-15T06:49:18.457Z,50.41
2023-04-15T06:50:18.461Z,50.35
2023-04-15T06:51:19.350Z,50.27
2023-04-15T06:52:18.410Z,50.19
2023-04-15T06:53:18.413Z,50.13
2023-04-15T06:54:18.383Z,50.07
2023-04-15T06:55:18.355Z,50.01
2023-04-15T06:56:18.352Z,49.92
2023-04-15T06:57:19.295Z,49.86
2023-04-15T06:58:18.348Z,49.79
2023-04-15T06:59:18.323Z,49.69
2023-04-15T07:00:18.288Z,49.61
2023-04-15T07:01:18.353Z,49.55
2023-04-15T07:02:19.325Z,49.45
2023-04-15T07:03:18.301Z,49.34
2023-04-15T07:04:18.273Z,49.25
2023-04-15T07:05:18.238Z,49.15
2023-04-15T07:06:18.235Z,49.11
2023-04-15T07:07:19.149Z,49.05
2023-04-15T07:08:18.201Z,49.01
2023-04-15T07:09:18.192Z,48.96
2023-04-15T07:10:18.182Z,48.96
2023-04-15T07:11:18.144Z,48.90
2023-04-15T07:12:18.162Z,48.85
2023-04-15T07:13:19.074Z,48.80
2023-04-15T07:14:18.167Z,48.78
2023-04-15T07:15:18.114Z,48.83
2023-04-15T07:16:18.121Z,48.87
2023-04-15T07:17:18.110Z,48.88
2023-04-15T07:18:19.018Z,48.91
2023-04-15T07:19:18.061Z,48.90
2023-04-15T07:20:18.047Z,48.98
2023-04-15T07:21:18.049Z,49.05
2023-04-15T07:22:18.040Z,49.12
2023-04-15T07:23:18.013Z,49.14
2023-04-15T07:24:18.937Z,49.15
2023-04-15T07:25:18.364Z,49.22
2023-04-15T07:26:17.950Z,49.28
2023-04-15T07:27:17.980Z,49.30
2023-04-15T07:28:17.927Z,49.37
2023-04-15T07:29:18.868Z,49.51
2023-04-15T07:30:17.930Z,49.70
2023-04-15T07:31:17.974Z,49.89
2023-04-15T07:32:17.873Z,50.09
2023-04-15T07:33:17.898Z,50.27
2023-04-15T07:34:18.803Z,50.41
2023-04-15T07:35:17.848Z,50.48
2023-04-15T07:36:17.841Z,50.49
2023-04-15T07:37:17.817Z,50.51
2023-04-15T07:38:17.810Z,50.58
2023-04-15T07:39:18.703Z,50.64
2023-04-15T07:40:17.780Z,50.61
2023-04-15T07:41:17.783Z,50.60
2023-04-15T07:42:17.877Z,50.56
2023-04-15T07:43:17.731Z,50.54
2023-04-15T07:44:18.646Z,50.61
2023-04-15T07:45:17.774Z,50.73
2023-04-15T07:46:17.761Z,50.82
2023-04-15T07:47:17.762Z,50.90
2023-04-15T07:48:17.683Z,51.01
2023-04-15T07:49:17.692Z,51.13
2023-04-15T07:50:18.585Z,51.21
2023-04-15T07:51:17.674Z,51.30
2023-04-15T07:52:17.622Z,51.35
2023-04-15T07:53:17.614Z,51.37
2023-04-15T07:54:17.635Z,51.40
2023-04-15T07:55:18.517Z,51.50
2023-04-15T07:56:17.603Z,51.57
2023-04-15T07:57:17.581Z,51.67
2023-04-15T07:58:17.577Z,51.77
2023-04-15T07:59:17.547Z,51.78
2023-04-15T08:00:18.428Z,51.72
2023-04-15T08:01:17.516Z,51.61
2023-04-15T08:02:17.620Z,51.58
2023-04-15T08:03:17.559Z,51.58
2023-04-15T08:04:17.582Z,51.61
2023-04-15T08:05:17.509Z,51.65
2023-04-15T08:06:18.368Z,51.60
2023-04-15T08:07:17.416Z,51.55
2023-04-15T08:08:17.480Z,51.55
2023-04-15T08:09:17.408Z,51.52
2023-04-15T08:10:17.384Z,51.56
2023-04-15T08:11:17.379Z,51.63
2023-04-15T08:12:18.291Z,51.67
2023-04-15T08:13:17.380Z,51.67
2023-04-15T08:14:17.353Z,51.68
2023-04-15T08:15:17.376Z,51.71
2023-04-15T08:16:17.336Z,51.81
2023-04-15T08:17:17.325Z,51.88
2023-04-15T08:18:18.223Z,51.95
2023-04-15T08:19:17.280Z,52.00
2023-04-15T08:20:17.234Z,52.03
2023-04-15T08:21:17.237Z,52.07
2023-04-15T08:22:18.186Z,52.08
2023-04-15T08:23:17.261Z,52.10
2023-04-15T08:24:18.140Z,52.10
2023-04-15T08:25:17.183Z,52.11
2023-04-15T08:26:17.168Z,52.09
2023-04-15T08:27:17.188Z,52.08
2023-04-15T08:28:17.163Z,52.06
2023-04-15T08:29:18.117Z,52.03
2023-04-15T08:30:17.125Z,52.02
2023-04-15T08:31:17.122Z,52.00
2023-04-15T08:32:17.109Z,52.00
2023-04-15T08:33:17.073Z,51.98
2023-04-15T08:34:17.058Z,51.98
2023-04-15T08:35:18.000Z,51.98
2023-04-15T08:36:17.056Z,51.98
2023-04-15T08:37:17.030Z,51.98
2023-04-15T08:38:17.028Z,52.01
2023-04-15T08:39:17.021Z,52.06
2023-04-15T08:40:17.015Z,52.05
2023-04-15T08:41:17.918Z,52.00
2023-04-15T08:42:16.963Z,51.96
2023-04-15T08:43:16.961Z,51.98
2023-04-15T08:44:16.945Z,52.02
2023-04-15T08:45:16.915Z,51.98
2023-04-15T08:46:16.934Z,51.95
2023-04-15T08:47:17.832Z,52.00
2023-04-15T08:48:16.921Z,51.98
2023-04-15T08:49:16.951Z,51.89
2023-04-15T08:50:16.847Z,51.84
2023-04-15T08:51:16.867Z,51.83
2023-04-15T08:52:17.768Z,51.73
2023-04-15T08:53:16.849Z,51.69
2023-04-15T08:54:16.819Z,51.67
2023-04-15T08:55:16.815Z,51.71
2023-04-15T08:56:17.031Z,51.79
2023-04-15T08:57:16.798Z,51.86
2023-04-15T08:58:17.711Z,51.94
2023-04-15T08:59:16.740Z,51.99
2023-04-15T09:00:16.741Z,52.06
2023-04-15T09:01:16.751Z,52.14
2023-04-15T09:02:16.725Z,52.17
2023-04-15T09:03:16.789Z,52.18
2023-04-15T09:04:17.641Z,52.18
2023-04-15T09:05:16.682Z,52.18
2023-04-15T09:06:16.788Z,52.22
2023-04-15T09:07:16.667Z,52.21
2023-04-15T09:08:16.665Z,52.17
2023-04-15T09:09:16.630Z,52.14
2023-04-15T09:10:17.551Z,52.10
2023-04-15T09:11:17.400Z,52.05
2023-04-15T09:12:16.580Z,52.05
2023-04-15T09:13:16.611Z,52.13
2023-04-15T09:14:16.544Z,52.16
2023-04-15T09:15:16.543Z,52.13
2023-04-15T09:16:17.534Z,52.17
2023-04-15T09:17:16.508Z,52.15
2023-04-15T09:18:16.503Z,52.05
2023-04-15T09:19:16.476Z,51.90
2023-04-15T09:20:16.500Z,51.90
2023-04-15T09:21:16.504Z,51.89
2023-04-15T09:22:17.366Z,51.90
2023-04-15T09:23:16.442Z,51.95
2023-04-15T09:24:16.427Z,51.99
2023-04-15T09:25:16.408Z,51.99
2023-04-15T09:26:16.406Z,51.98
2023-04-15T09:27:17.446Z,51.97
2023-04-15T09:28:16.678Z,51.95
2023-04-15T09:29:16.377Z,51.87
2023-04-15T09:30:16.374Z,51.80
2023-04-15T09:31:16.393Z,51.84
2023-04-15T09:32:16.336Z,51.85
2023-04-15T09:33:17.284Z,51.94
2023-04-15T09:34:16.284Z,52.00
2023-04-15T09:35:16.271Z,52.03
2023-04-15T09:36:16.278Z,52.02
2023-04-15T09:37:31.294Z,51.99
2023-04-15T09:38:17.755Z,51.95
2023-04-15T09:39:17.151Z,51.86
2023-04-15T09:40:16.205Z,51.79
2023-04-15T09:41:16.301Z,51.67
2023-04-15T09:42:16.189Z,51.56
2023-04-15T09:43:16.166Z,51.53
2023-04-15T09:44:17.094Z,51.54
2023-04-15T09:45:16.172Z,51.60
2023-04-15T09:46:16.194Z,51.52
2023-04-15T09:47:16.130Z,51.43
2023-04-15T09:48:16.103Z,51.40
2023-04-15T09:49:17.044Z,51.36
2023-04-15T09:50:16.092Z,51.34
2023-04-15T09:51:16.097Z,51.35
2023-04-15T09:52:16.058Z,51.41
2023-04-15T09:53:16.021Z,51.45
2023-04-15T09:54:17.024Z,51.51
2023-04-15T09:55:16.287Z,51.50
2023-04-15T09:56:16.003Z,51.54
2023-04-15T09:57:16.214Z,51.54
2023-04-15T09:58:16.058Z,51.58
2023-04-15T09:59:16.013Z,51.63
2023-04-15T10:00:16.921Z,51.69
2023-04-15T10:01:15.942Z,51.78
2023-04-15T10:02:15.998Z,51.90
2023-04-15T10:03:16.069Z,51.94
2023-04-15T10:04:16.018Z,51.95
2023-04-15T10:05:15.888Z,51.99
2023-04-15T10:06:16.815Z,51.98
2023-04-15T10:07:15.891Z,52.02
2023-04-15T10:08:15.865Z,51.99
2023-04-15T10:09:15.852Z,51.98
2023-04-15T10:10:15.907Z,52.02
2023-04-15T10:11:15.838Z,52.14
2023-04-15T10:12:16.750Z,52.19
2023-04-15T10:13:15.826Z,52.22
2023-04-15T10:14:15.787Z,52.25
2023-04-15T10:15:15.759Z,52.29
2023-04-15T10:16:15.774Z,52.36
2023-04-15T10:17:15.735Z,52.42
2023-04-15T10:18:16.683Z,52.43
2023-04-15T10:19:15.738Z,52.43
2023-04-15T10:20:15.745Z,52.45
2023-04-15T10:21:15.694Z,52.52
2023-04-15T10:22:15.697Z,52.53
2023-04-15T10:23:15.681Z,52.55
2023-04-15T10:24:16.572Z,52.51
2023-04-15T10:25:15.665Z,52.50
2023-04-15T10:26:15.642Z,52.56
2023-04-15T10:27:15.635Z,52.60
2023-04-15T10:28:15.639Z,52.63
2023-04-15T10:29:15.588Z,52.67
2023-04-15T10:30:16.496Z,52.73
2023-04-15T10:31:15.617Z,52.75
2023-04-15T10:32:15.551Z,52.74
2023-04-15T10:33:15.556Z,52.79
2023-04-15T10:34:15.634Z,52.83
2023-04-15T10:35:15.529Z,52.79
2023-04-15T10:36:16.425Z,52.80
2023-04-15T10:37:15.526Z,52.72
2023-04-15T10:38:15.493Z,52.68
2023-04-15T10:39:15.567Z,52.64
2023-04-15T10:40:15.425Z,52.57
2023-04-15T10:41:17.067Z,52.47
2023-04-15T10:42:16.385Z,52.42
2023-04-15T10:43:15.409Z,52.42
2023-04-15T10:44:15.379Z,52.25
2023-04-15T10:45:15.393Z,52.11
2023-04-15T10:46:15.370Z,52.01
2023-04-15T10:47:15.364Z,51.92
2023-04-15T10:48:16.293Z,51.87
2023-04-15T10:49:15.360Z,51.92
2023-04-15T10:50:15.362Z,51.95
2023-04-15T10:51:15.336Z,51.86
2023-04-15T10:52:15.291Z,51.77
2023-04-15T10:53:16.212Z,51.65
2023-04-15T10:54:15.310Z,51.62
2023-04-15T10:55:15.246Z,51.60
2023-04-15T10:56:15.279Z,51.49
2023-04-15T10:57:15.237Z,51.33
2023-04-15T10:58:16.138Z,51.15
2023-04-15T10:59:15.197Z,51.09
2023-04-15T11:00:15.217Z,51.07
2023-04-15T11:01:15.177Z,50.99
2023-04-15T11:02:15.279Z,51.00
2023-04-15T11:03:15.237Z,51.09
2023-04-15T11:04:16.187Z,51.14
2023-04-15T11:05:15.151Z,51.13
2023-04-15T11:06:16.166Z,51.12
2023-04-15T11:07:15.122Z,51.15
2023-04-15T11:08:15.101Z,51.16
2023-04-15T11:09:16.003Z,51.22
2023-04-15T11:10:15.064Z,51.32
2023-04-15T11:11:15.051Z,51.45
2023-04-15T11:12:15.026Z,51.52
2023-04-15T11:13:15.034Z,51.67
2023-04-15T11:14:15.949Z,51.74
2023-04-15T11:15:15.034Z,51.75
2023-04-15T11:16:15.041Z,51.82
2023-04-15T11:17:14.986Z,51.94
2023-04-15T11:18:15.004Z,52.09
2023-04-15T11:19:15.905Z,52.28
2023-04-15T11:20:14.940Z,52.40
2023-04-15T11:21:15.169Z,52.53
2023-04-15T11:22:14.910Z,52.59
2023-04-15T11:23:15.730Z,52.68
2023-04-15T11:24:14.903Z,52.79
2023-04-15T11:25:15.791Z,52.84
2023-04-15T11:26:14.866Z,52.83
2023-04-15T11:27:14.869Z,52.87
2023-04-15T11:28:14.856Z,52.89
2023-04-15T11:29:14.831Z,52.93
2023-04-15T11:30:15.728Z,52.92
2023-04-15T11:31:14.819Z,52.87
2023-04-15T11:32:14.828Z,52.85
2023-04-15T11:33:14.787Z,52.88
2023-04-15T11:34:14.762Z,52.88
2023-04-15T11:35:15.678Z,52.86
2023-04-15T11:36:14.772Z,52.94
2023-04-15T11:37:14.712Z,53.01
2023-04-15T11:38:14.719Z,53.02
2023-04-15T11:39:14.699Z,53.08
2023-04-15T11:40:15.593Z,53.13
2023-04-15T11:41:14.660Z,53.08
2023-04-15T11:42:14.657Z,53.11
2023-04-15T11:43:14.647Z,53.15
2023-04-15T11:44:14.635Z,53.26
2023-04-15T11:45:15.536Z,53.34
2023-04-15T11:46:14.665Z,53.42
2023-04-15T11:47:14.592Z,53.43
2023-04-15T11:48:14.619Z,53.42
2023-04-15T11:49:14.563Z,53.29
2023-04-15T11:50:14.544Z,53.22
2023-04-15T11:51:15.491Z,53.20
2023-04-15T11:52:14.495Z,53.20
2023-04-15T11:53:14.493Z,53.18
2023-04-15T11:54:14.498Z,53.13
2023-04-15T11:55:14.513Z,53.10
2023-04-15T11:57:12.897Z,52.57
2023-04-15T11:58:14.430Z,53.18
2023-04-15T11:59:12.854Z,53.33
2023-04-15T12:00:12.801Z,53.40
2023-04-15T12:01:12.892Z,53.33
2023-04-15T12:02:13.869Z,53.17
2023-04-15T12:03:12.938Z,53.13
2023-04-15T12:04:13.027Z,53.04
2023-04-15T12:05:12.800Z,52.97
2023-04-15T12:06:12.762Z,53.06
2023-04-15T12:07:13.727Z,53.19
2023-04-15T12:08:12.788Z,53.27
2023-04-15T12:09:12.756Z,53.23
2023-04-15T12:10:12.723Z,53.20
2023-04-15T12:11:12.767Z,53.18
2023-04-15T12:12:12.702Z,53.17
2023-04-15T12:13:13.684Z,53.04
2023-04-15T12:14:12.692Z,52.87
2023-04-15T12:15:12.730Z,52.70
2023-04-15T12:16:12.676Z,52.61
2023-04-15T12:17:12.680Z,52.50
2023-04-15T12:18:13.566Z,52.28
2023-04-15T12:19:12.612Z,52.20
2023-04-15T12:20:12.623Z,52.22
2023-04-15T12:21:12.562Z,52.27
2023-04-15T12:22:12.581Z,52.25
2023-04-15T12:23:12.578Z,52.17
2023-04-15T12:24:13.502Z,52.05
2023-04-15T12:25:12.524Z,52.03
2023-04-15T12:26:12.549Z,52.06
2023-04-15T12:27:12.497Z,52.13
2023-04-15T12:28:12.531Z,52.22
2023-04-15T12:29:12.472Z,52.19
2023-04-15T12:30:13.396Z,52.20
2023-04-15T12:31:12.457Z,52.25
2023-04-15T12:32:12.509Z,52.20
2023-04-15T12:33:12.417Z,52.25
2023-04-15T12:34:12.552Z,52.27
2023-04-15T12:35:12.431Z,52.18
2023-04-15T12:36:13.374Z,51.94
2023-04-15T12:37:12.434Z,51.91
2023-04-15T12:38:12.338Z,52.05
2023-04-15T12:39:12.326Z,52.06
2023-04-15T12:40:12.308Z,52.03
2023-04-15T12:41:12.358Z,52.02
2023-04-15T12:42:13.295Z,52.03
2023-04-15T12:43:12.349Z,52.09
2023-04-15T12:44:12.309Z,51.98
2023-04-15T12:45:12.302Z,51.94
2023-04-15T12:46:12.404Z,51.89
2023-04-15T12:47:12.263Z,51.89
2023-04-15T12:48:13.268Z,51.82
2023-04-15T12:49:12.316Z,51.78
2023-04-15T12:50:12.326Z,51.83
2023-04-15T12:51:12.332Z,51.89
2023-04-15T12:52:12.180Z,51.88
2023-04-15T12:53:12.145Z,51.78